sensor_id;sensor_type;location;lat;lon;timestamp;temperature;humidity
30063;DHT22;16889;67.864;24.990;2023-07-28T00:02:31;9.90;99.90
30063;DHT22;16889;67.864;24.990;2023-07-28T00:07:18;9.80;99.90
30063;DHT22;16889;67.864;24.990;2023-07-28T00:12:04;9.80;99.90
30063;DHT22;16889;67.864;24.990;2023-07-28T00:16:50;9.80;99.90
30063;DHT22;16889;67.864;24.990;2023-07-28T00:21:37;9.60;99.90
30063;DHT22;16889;67.864;24.990;2023-07-28T00:26:23;9.50;99.90
30063;DHT22;16889;67.864;24.990;2023-07-28T00:31:09;9.60;99.90
30063;DHT22;16889;67.864;24.990;2023-07-28T00:35:55;9.50;99.90
30063;DHT22;16889;67.864;24.990;2023-07-28T00:40:41;9.60;99.90
30063;DHT22;16889;67.864;24.990;2023-07-28T00:45:28;9.60;99.90
30063;DHT22;16889;67.864;24.990;2023-07-28T00:50:14;9.60;99.90
30063;DHT22;16889;67.864;24.990;2023-07-28T00:55:01;9.70;99.90
30063;DHT22;16889;67.864;24.990;2023-07-28T00:59:47;9.60;99.90
30063;DHT22;16889;67.864;24.990;2023-07-28T01:04:35;9.30;99.90
30063;DHT22;16889;67.864;24.990;2023-07-28T01:09:26;9.40;99.90
30063;DHT22;16889;67.864;24.990;2023-07-28T01:14:14;9.30;99.90
30063;DHT22;16889;67.864;24.990;2023-07-28T01:19:00;9.40;99.90
30063;DHT22;16889;67.864;24.990;2023-07-28T01:23:59;9.30;99.90
30063;DHT22;16889;67.864;24.990;2023-07-28T01:28:48;9.20;99.90
30063;DHT22;16889;67.864;24.990;2023-07-28T01:33:34;9.20;99.90
30063;DHT22;16889;67.864;24.990;2023-07-28T01:38:20;9.20;99.90
30063;DHT22;16889;67.864;24.990;2023-07-28T01:43:06;9.30;99.90
30063;DHT22;16889;67.864;24.990;2023-07-28T01:47:52;9.30;99.90
30063;DHT22;16889;67.864;24.990;2023-07-28T01:52:38;9.30;99.90
30063;DHT22;16889;67.864;24.990;2023-07-28T01:57:24;9.40;99.90
30063;DHT22;16889;67.864;24.990;2023-07-28T02:02:12;9.50;99.90
30063;DHT22;16889;67.864;24.990;2023-07-28T02:06:58;9.50;99.90
30063;DHT22;16889;67.864;24.990;2023-07-28T02:11:44;9.70;99.90
30063;DHT22;16889;67.864;24.990;2023-07-28T02:16:30;9.70;99.90
30063;DHT22;16889;67.864;24.990;2023-07-28T02:21:17;9.80;99.90
30063;DHT22;16889;67.864;24.990;2023-07-28T02:26:03;9.90;99.90
30063;DHT22;16889;67.864;24.990;2023-07-28T02:30:49;9.80;99.90
30063;DHT22;16889;67.864;24.990;2023-07-28T02:35:35;9.90;99.90
30063;DHT22;16889;67.864;24.990;2023-07-28T02:40:22;9.90;99.90
30063;DHT22;16889;67.864;24.990;2023-07-28T02:45:08;10.00;99.90
30063;DHT22;16889;67.864;24.990;2023-07-28T02:49:57;10.20;99.90
30063;DHT22;16889;67.864;24.990;2023-07-28T02:54:43;10.50;99.90
30063;DHT22;16889;67.864;24.990;2023-07-28T02:59:29;10.60;99.90
30063;DHT22;16889;67.864;24.990;2023-07-28T03:04:15;10.70;99.90
30063;DHT22;16889;67.864;24.990;2023-07-28T03:09:01;10.90;99.90
30063;DHT22;16889;67.864;24.990;2023-07-28T03:13:47;11.20;99.90
30063;DHT22;16889;67.864;24.990;2023-07-28T03:18:33;11.50;99.90
30063;DHT22;16889;67.864;24.990;2023-07-28T03:23:19;11.60;99.90
30063;DHT22;16889;67.864;24.990;2023-07-28T03:28:05;11.90;99.90
30063;DHT22;16889;67.864;24.990;2023-07-28T03:32:51;12.20;99.90
30063;DHT22;16889;67.864;24.990;2023-07-28T03:37:37;12.50;99.90
30063;DHT22;16889;67.864;24.990;2023-07-28T03:42:23;12.60;99.90
30063;DHT22;16889;67.864;24.990;2023-07-28T03:47:09;12.90;99.90
30063;DHT22;16889;67.864;24.990;2023-07-28T03:51:55;13.10;99.90
30063;DHT22;16889;67.864;24.990;2023-07-28T03:56:41;13.20;99.90
30063;DHT22;16889;67.864;24.990;2023-07-28T04:01:27;13.40;99.90
30063;DHT22;16889;67.864;24.990;2023-07-28T04:06:13;14.20;99.90
30063;DHT22;16889;67.864;24.990;2023-07-28T04:10:59;14.80;99.90
30063;DHT22;16889;67.864;24.990;2023-07-28T04:15:45;15.20;99.90
30063;DHT22;16889;67.864;24.990;2023-07-28T04:20:31;15.40;99.90
30063;DHT22;16889;67.864;24.990;2023-07-28T04:25:17;15.80;99.90
30063;DHT22;16889;67.864;24.990;2023-07-28T04:30:03;16.60;99.90
30063;DHT22;16889;67.864;24.990;2023-07-28T04:34:49;17.20;99.90
30063;DHT22;16889;67.864;24.990;2023-07-28T04:39:35;17.40;99.90
30063;DHT22;16889;67.864;24.990;2023-07-28T04:44:21;17.20;99.90
30063;DHT22;16889;67.864;24.990;2023-07-28T04:49:07;17.60;99.90
30063;DHT22;16889;67.864;24.990;2023-07-28T04:53:53;21.00;99.90
30063;DHT22;16889;67.864;24.990;2023-07-28T04:58:39;24.90;99.90
30063;DHT22;16889;67.864;24.990;2023-07-28T05:03:25;27.40;99.10
30063;DHT22;16889;67.864;24.990;2023-07-28T05:08:11;26.60;95.00
30063;DHT22;16889;67.864;24.990;2023-07-28T05:12:57;24.90;98.00
30063;DHT22;16889;67.864;24.990;2023-07-28T05:17:43;25.90;98.30
30063;DHT22;16889;67.864;24.990;2023-07-28T05:22:29;27.40;96.30
30063;DHT22;16889;67.864;24.990;2023-07-28T05:27:15;28.60;93.90
30063;DHT22;16889;67.864;24.990;2023-07-28T05:32:01;29.00;91.70
30063;DHT22;16889;67.864;24.990;2023-07-28T05:36:47;28.70;91.40
30063;DHT22;16889;67.864;24.990;2023-07-28T05:41:33;27.00;93.00
30063;DHT22;16889;67.864;24.990;2023-07-28T05:46:19;25.60;96.30
30063;DHT22;16889;67.864;24.990;2023-07-28T05:51:05;23.70;99.70
30063;DHT22;16889;67.864;24.990;2023-07-28T05:55:51;22.20;99.90
30063;DHT22;16889;67.864;24.990;2023-07-28T06:00:39;21.40;99.90
30063;DHT22;16889;67.864;24.990;2023-07-28T06:05:26;21.00;99.90
30063;DHT22;16889;67.864;24.990;2023-07-28T06:10:12;20.80;99.90
30063;DHT22;16889;67.864;24.990;2023-07-28T06:14:58;20.60;99.90
30063;DHT22;16889;67.864;24.990;2023-07-28T06:19:44;20.40;99.90
30063;DHT22;16889;67.864;24.990;2023-07-28T06:24:30;20.00;99.90
30063;DHT22;16889;67.864;24.990;2023-07-28T06:29:16;19.70;99.90
30063;DHT22;16889;67.864;24.990;2023-07-28T06:34:02;19.90;99.90
30063;DHT22;16889;67.864;24.990;2023-07-28T06:38:48;20.10;99.90
30063;DHT22;16889;67.864;24.990;2023-07-28T06:43:34;20.20;99.90
30063;DHT22;16889;67.864;24.990;2023-07-28T06:48:21;20.40;99.90
30063;DHT22;16889;67.864;24.990;2023-07-28T06:53:07;20.20;99.90
30063;DHT22;16889;67.864;24.990;2023-07-28T06:57:53;20.10;99.90
30063;DHT22;16889;67.864;24.990;2023-07-28T07:02:39;20.80;99.90
30063;DHT22;16889;67.864;24.990;2023-07-28T07:07:25;21.30;99.90
30063;DHT22;16889;67.864;24.990;2023-07-28T07:12:11;22.10;99.90
30063;DHT22;16889;67.864;24.990;2023-07-28T07:16:57;23.40;99.90
30063;DHT22;16889;67.864;24.990;2023-07-28T07:21:43;24.00;99.90
30063;DHT22;16889;67.864;24.990;2023-07-28T07:26:30;24.50;99.90
30063;DHT22;16889;67.864;24.990;2023-07-28T07:31:17;24.40;99.90
30063;DHT22;16889;67.864;24.990;2023-07-28T07:36:03;24.30;99.90
30063;DHT22;16889;67.864;24.990;2023-07-28T07:40:49;24.00;99.90
30063;DHT22;16889;67.864;24.990;2023-07-28T07:45:35;24.60;99.90
30063;DHT22;16889;67.864;24.990;2023-07-28T07:50:20;25.20;99.90
30063;DHT22;16889;67.864;24.990;2023-07-28T07:55:10;25.00;99.90
30063;DHT22;16889;67.864;24.990;2023-07-28T07:59:59;24.60;99.90
30063;DHT22;16889;67.864;24.990;2023-07-28T08:04:45;24.80;99.90
30063;DHT22;16889;67.864;24.990;2023-07-28T08:09:31;24.70;99.90
30063;DHT22;16889;67.864;24.990;2023-07-28T08:14:19;24.00;99.90
30063;DHT22;16889;67.864;24.990;2023-07-28T08:19:05;23.90;99.90
30063;DHT22;16889;67.864;24.990;2023-07-28T08:23:51;23.90;99.90
30063;DHT22;16889;67.864;24.990;2023-07-28T08:28:37;23.40;99.90
30063;DHT22;16889;67.864;24.990;2023-07-28T08:33:23;25.30;99.90
30063;DHT22;16889;67.864;24.990;2023-07-28T08:38:09;26.50;99.20
30063;DHT22;16889;67.864;24.990;2023-07-28T08:42:55;26.80;99.90
30063;DHT22;16889;67.864;24.990;2023-07-28T08:47:41;26.80;97.70
30063;DHT22;16889;67.864;24.990;2023-07-28T08:52:27;26.50;98.20
30063;DHT22;16889;67.864;24.990;2023-07-28T08:57:13;25.90;99.90
30063;DHT22;16889;67.864;24.990;2023-07-28T09:01:59;25.20;99.90
30063;DHT22;16889;67.864;24.990;2023-07-28T09:06:46;25.40;99.90
30063;DHT22;16889;67.864;24.990;2023-07-28T09:11:32;25.40;99.90
30063;DHT22;16889;67.864;24.990;2023-07-28T09:16:20;25.20;99.90
30063;DHT22;16889;67.864;24.990;2023-07-28T09:21:06;24.60;99.90
30063;DHT22;16889;67.864;24.990;2023-07-28T09:25:59;24.20;99.90
30063;DHT22;16889;67.864;24.990;2023-07-28T09:30:48;23.50;99.90
30063;DHT22;16889;67.864;24.990;2023-07-28T09:35:34;23.60;99.90
30063;DHT22;16889;67.864;24.990;2023-07-28T09:40:32;23.40;99.80
30063;DHT22;16889;67.864;24.990;2023-07-28T09:45:19;23.10;99.90
30063;DHT22;16889;67.864;24.990;2023-07-28T09:50:07;23.30;99.90
30063;DHT22;16889;67.864;24.990;2023-07-28T09:54:56;23.70;99.90
30063;DHT22;16889;67.864;24.990;2023-07-28T09:59:45;24.10;99.90
30063;DHT22;16889;67.864;24.990;2023-07-28T10:04:33;23.50;99.90
30063;DHT22;16889;67.864;24.990;2023-07-28T10:09:19;23.50;99.90
30063;DHT22;16889;67.864;24.990;2023-07-28T10:14:07;23.70;99.90
30063;DHT22;16889;67.864;24.990;2023-07-28T10:18:56;24.40;99.90
30063;DHT22;16889;67.864;24.990;2023-07-28T10:23:44;25.40;97.40
30063;DHT22;16889;67.864;24.990;2023-07-28T10:28:32;26.00;95.00
30063;DHT22;16889;67.864;24.990;2023-07-28T10:33:32;26.70;92.70
30063;DHT22;16889;67.864;24.990;2023-07-28T10:38:29;27.30;93.50
30063;DHT22;16889;67.864;24.990;2023-07-28T10:43:16;26.90;94.00
30063;DHT22;16889;67.864;24.990;2023-07-28T10:48:02;26.00;93.90
30063;DHT22;16889;67.864;24.990;2023-07-28T10:52:49;25.20;93.40
30063;DHT22;16889;67.864;24.990;2023-07-28T10:57:36;24.50;97.50
30063;DHT22;16889;67.864;24.990;2023-07-28T11:02:22;24.10;98.90
30063;DHT22;16889;67.864;24.990;2023-07-28T11:07:08;23.20;99.90
30063;DHT22;16889;67.864;24.990;2023-07-28T11:11:54;22.40;99.90
30063;DHT22;16889;67.864;24.990;2023-07-28T11:16:41;22.20;99.90
30063;DHT22;16889;67.864;24.990;2023-07-28T11:21:27;22.10;99.90
30063;DHT22;16889;67.864;24.990;2023-07-28T11:26:13;22.30;99.90
30063;DHT22;16889;67.864;24.990;2023-07-28T11:30:59;22.80;99.90
30063;DHT22;16889;67.864;24.990;2023-07-28T11:35:45;23.60;98.60
30063;DHT22;16889;67.864;24.990;2023-07-28T11:40:32;23.80;99.90
30063;DHT22;16889;67.864;24.990;2023-07-28T11:45:19;24.30;98.30
30063;DHT22;16889;67.864;24.990;2023-07-28T11:50:06;24.50;95.50
30063;DHT22;16889;67.864;24.990;2023-07-28T11:54:53;23.90;99.10
30063;DHT22;16889;67.864;24.990;2023-07-28T11:59:40;24.10;98.10
30063;DHT22;16889;67.864;24.990;2023-07-28T12:04:27;23.80;99.50
30063;DHT22;16889;67.864;24.990;2023-07-28T12:09:14;23.70;97.50
30063;DHT22;16889;67.864;24.990;2023-07-28T12:13:59;24.10;99.20
30063;DHT22;16889;67.864;24.990;2023-07-28T12:18:46;24.40;99.90
30063;DHT22;16889;67.864;24.990;2023-07-28T12:23:32;24.00;95.30
30063;DHT22;16889;67.864;24.990;2023-07-28T12:28:18;23.90;95.60
30063;DHT22;16889;67.864;24.990;2023-07-28T12:33:05;24.00;97.70
30063;DHT22;16889;67.864;24.990;2023-07-28T12:37:51;24.10;96.70
30063;DHT22;16889;67.864;24.990;2023-07-28T12:42:37;24.30;94.40
30063;DHT22;16889;67.864;24.990;2023-07-28T12:47:24;24.30;99.30
30063;DHT22;16889;67.864;24.990;2023-07-28T12:52:10;24.00;96.30
30063;DHT22;16889;67.864;24.990;2023-07-28T12:56:56;24.10;97.80
30063;DHT22;16889;67.864;24.990;2023-07-28T13:01:42;24.40;98.20
30063;DHT22;16889;67.864;24.990;2023-07-28T13:06:28;24.60;96.00
30063;DHT22;16889;67.864;24.990;2023-07-28T13:11:14;24.50;92.80
30063;DHT22;16889;67.864;24.990;2023-07-28T13:16:00;24.00;91.00
30063;DHT22;16889;67.864;24.990;2023-07-28T13:20:46;23.70;92.20
30063;DHT22;16889;67.864;24.990;2023-07-28T13:25:32;23.50;94.00
30063;DHT22;16889;67.864;24.990;2023-07-28T13:30:18;23.50;94.00
30063;DHT22;16889;67.864;24.990;2023-07-28T13:35:04;24.00;93.30
30063;DHT22;16889;67.864;24.990;2023-07-28T13:39:50;24.40;92.70
30063;DHT22;16889;67.864;24.990;2023-07-28T13:44:37;24.40;91.20
30063;DHT22;16889;67.864;24.990;2023-07-28T13:49:24;24.10;91.60
30063;DHT22;16889;67.864;24.990;2023-07-28T13:54:11;23.50;95.40
30063;DHT22;16889;67.864;24.990;2023-07-28T13:58:57;22.90;94.20
30063;DHT22;16889;67.864;24.990;2023-07-28T14:03:43;22.90;96.70
30063;DHT22;16889;67.864;24.990;2023-07-28T14:08:30;23.10;94.80
30063;DHT22;16889;67.864;24.990;2023-07-28T14:13:15;22.60;93.20
30063;DHT22;16889;67.864;24.990;2023-07-28T14:18:01;22.20;95.90
30063;DHT22;16889;67.864;24.990;2023-07-28T14:22:47;21.90;96.00
30063;DHT22;16889;67.864;24.990;2023-07-28T14:27:33;21.80;97.10
30063;DHT22;16889;67.864;24.990;2023-07-28T14:32:19;21.50;99.90
30063;DHT22;16889;67.864;24.990;2023-07-28T14:37:06;21.60;99.90
30063;DHT22;16889;67.864;24.990;2023-07-28T14:41:51;21.70;99.90
30063;DHT22;16889;67.864;24.990;2023-07-28T14:46:37;21.60;99.90
30063;DHT22;16889;67.864;24.990;2023-07-28T14:51:24;21.40;99.80
30063;DHT22;16889;67.864;24.990;2023-07-28T14:56:10;21.60;99.90
30063;DHT22;16889;67.864;24.990;2023-07-28T15:00:56;21.30;99.90
30063;DHT22;16889;67.864;24.990;2023-07-28T15:05:43;21.30;99.90
30063;DHT22;16889;67.864;24.990;2023-07-28T15:10:29;21.20;99.90
30063;DHT22;16889;67.864;24.990;2023-07-28T15:15:18;21.10;99.90
30063;DHT22;16889;67.864;24.990;2023-07-28T15:20:04;20.80;99.90
30063;DHT22;16889;67.864;24.990;2023-07-28T15:24:50;20.40;99.90
30063;DHT22;16889;67.864;24.990;2023-07-28T15:29:36;20.30;99.90
30063;DHT22;16889;67.864;24.990;2023-07-28T15:34:22;20.20;99.90
30063;DHT22;16889;67.864;24.990;2023-07-28T15:39:08;20.30;99.90
30063;DHT22;16889;67.864;24.990;2023-07-28T15:43:54;20.40;99.90
30063;DHT22;16889;67.864;24.990;2023-07-28T15:48:40;20.50;99.90
30063;DHT22;16889;67.864;24.990;2023-07-28T15:53:26;20.40;99.90
30063;DHT22;16889;67.864;24.990;2023-07-28T15:58:12;20.40;99.90
30063;DHT22;16889;67.864;24.990;2023-07-28T16:02:58;20.40;99.90
30063;DHT22;16889;67.864;24.990;2023-07-28T16:07:44;20.40;99.90
30063;DHT22;16889;67.864;24.990;2023-07-28T16:12:30;20.40;99.90
30063;DHT22;16889;67.864;24.990;2023-07-28T16:17:16;20.40;99.90
30063;DHT22;16889;67.864;24.990;2023-07-28T16:22:02;20.50;99.90
30063;DHT22;16889;67.864;24.990;2023-07-28T16:26:49;20.70;99.90
30063;DHT22;16889;67.864;24.990;2023-07-28T16:31:35;21.00;99.90
30063;DHT22;16889;67.864;24.990;2023-07-28T16:36:21;21.30;99.90
30063;DHT22;16889;67.864;24.990;2023-07-28T16:41:07;21.70;99.90
30063;DHT22;16889;67.864;24.990;2023-07-28T16:45:53;22.00;99.90
30063;DHT22;16889;67.864;24.990;2023-07-28T16:50:39;22.20;99.90
30063;DHT22;16889;67.864;24.990;2023-07-28T16:55:26;22.20;99.90
30063;DHT22;16889;67.864;24.990;2023-07-28T17:00:13;22.40;99.90
30063;DHT22;16889;67.864;24.990;2023-07-28T17:04:59;22.40;99.90
30063;DHT22;16889;67.864;24.990;2023-07-28T17:09:44;22.60;99.90
30063;DHT22;16889;67.864;24.990;2023-07-28T17:14:30;22.50;99.90
30063;DHT22;16889;67.864;24.990;2023-07-28T17:19:17;22.40;99.90
30063;DHT22;16889;67.864;24.990;2023-07-28T17:24:03;22.30;99.90
30063;DHT22;16889;67.864;24.990;2023-07-28T17:28:49;22.50;99.90
30063;DHT22;16889;67.864;24.990;2023-07-28T17:33:36;22.20;99.90
30063;DHT22;16889;67.864;24.990;2023-07-28T17:38:22;22.00;99.90
30063;DHT22;16889;67.864;24.990;2023-07-28T17:43:08;21.90;99.90
30063;DHT22;16889;67.864;24.990;2023-07-28T17:47:55;21.80;99.90
30063;DHT22;16889;67.864;24.990;2023-07-28T17:52:42;21.70;99.90
30063;DHT22;16889;67.864;24.990;2023-07-28T17:57:29;21.60;99.90
30063;DHT22;16889;67.864;24.990;2023-07-28T18:02:15;21.50;99.90
30063;DHT22;16889;67.864;24.990;2023-07-28T18:07:01;21.50;99.90
30063;DHT22;16889;67.864;24.990;2023-07-28T18:11:47;21.20;99.90
30063;DHT22;16889;67.864;24.990;2023-07-28T18:16:33;21.10;99.90
30063;DHT22;16889;67.864;24.990;2023-07-28T18:21:20;20.70;99.90
30063;DHT22;16889;67.864;24.990;2023-07-28T18:26:06;20.40;99.90
30063;DHT22;16889;67.864;24.990;2023-07-28T18:30:52;20.10;99.90
30063;DHT22;16889;67.864;24.990;2023-07-28T18:35:38;19.80;99.90
30063;DHT22;16889;67.864;24.990;2023-07-28T18:40:24;19.60;99.90
30063;DHT22;16889;67.864;24.990;2023-07-28T18:45:10;19.00;99.90
30063;DHT22;16889;67.864;24.990;2023-07-28T18:49:56;18.80;99.90
30063;DHT22;16889;67.864;24.990;2023-07-28T18:54:42;18.60;99.90
30063;DHT22;16889;67.864;24.990;2023-07-28T18:59:28;18.40;99.90
30063;DHT22;16889;67.864;24.990;2023-07-28T19:04:14;18.30;99.90
30063;DHT22;16889;67.864;24.990;2023-07-28T19:09:00;18.10;99.90
30063;DHT22;16889;67.864;24.990;2023-07-28T19:13:46;17.80;99.90
30063;DHT22;16889;67.864;24.990;2023-07-28T19:18:34;17.60;99.90
30063;DHT22;16889;67.864;24.990;2023-07-28T19:23:23;17.30;99.90
30063;DHT22;16889;67.864;24.990;2023-07-28T19:28:09;17.20;99.90
30063;DHT22;16889;67.864;24.990;2023-07-28T19:32:55;17.20;99.90
30063;DHT22;16889;67.864;24.990;2023-07-28T19:37:41;17.00;99.90
30063;DHT22;16889;67.864;24.990;2023-07-28T19:42:27;16.90;99.90
30063;DHT22;16889;67.864;24.990;2023-07-28T19:47:13;16.70;99.90
30063;DHT22;16889;67.864;24.990;2023-07-28T19:51:59;16.50;99.90
30063;DHT22;16889;67.864;24.990;2023-07-28T19:56:45;16.30;99.90
30063;DHT22;16889;67.864;24.990;2023-07-28T20:01:31;16.10;99.90
30063;DHT22;16889;67.864;24.990;2023-07-28T20:06:17;16.00;99.90
30063;DHT22;16889;67.864;24.990;2023-07-28T20:11:04;15.80;99.90
30063;DHT22;16889;67.864;24.990;2023-07-28T20:15:50;15.40;99.90
30063;DHT22;16889;67.864;24.990;2023-07-28T20:20:39;15.40;99.90
30063;DHT22;16889;67.864;24.990;2023-07-28T20:25:25;15.40;99.90
30063;DHT22;16889;67.864;24.990;2023-07-28T20:30:11;15.30;99.90
30063;DHT22;16889;67.864;24.990;2023-07-28T20:34:57;15.10;99.90
30063;DHT22;16889;67.864;24.990;2023-07-28T20:39:43;15.00;99.90
30063;DHT22;16889;67.864;24.990;2023-07-28T20:44:31;14.80;99.90
30063;DHT22;16889;67.864;24.990;2023-07-28T20:49:17;14.70;99.90
30063;DHT22;16889;67.864;24.990;2023-07-28T20:54:03;14.50;99.90
30063;DHT22;16889;67.864;24.990;2023-07-28T20:58:49;14.40;99.90
30063;DHT22;16889;67.864;24.990;2023-07-28T21:03:35;14.40;99.90
30063;DHT22;16889;67.864;24.990;2023-07-28T21:08:21;14.20;99.90
30063;DHT22;16889;67.864;24.990;2023-07-28T21:13:07;14.00;99.90
30063;DHT22;16889;67.864;24.990;2023-07-28T21:17:53;13.90;99.90
30063;DHT22;16889;67.864;24.990;2023-07-28T21:22:39;13.90;99.90
30063;DHT22;16889;67.864;24.990;2023-07-28T21:27:25;13.70;99.90
30063;DHT22;16889;67.864;24.990;2023-07-28T21:32:11;13.70;99.90
30063;DHT22;16889;67.864;24.990;2023-07-28T21:36:57;13.50;99.90
30063;DHT22;16889;67.864;24.990;2023-07-28T21:41:43;13.40;99.90
30063;DHT22;16889;67.864;24.990;2023-07-28T21:46:29;13.40;99.90
30063;DHT22;16889;67.864;24.990;2023-07-28T21:51:16;13.30;99.90
30063;DHT22;16889;67.864;24.990;2023-07-28T21:56:02;13.30;99.90
30063;DHT22;16889;67.864;24.990;2023-07-28T22:00:48;13.00;99.90
30063;DHT22;16889;67.864;24.990;2023-07-28T22:05:34;13.10;99.90
30063;DHT22;16889;67.864;24.990;2023-07-28T22:10:20;13.10;99.90
30063;DHT22;16889;67.864;24.990;2023-07-28T22:15:07;13.10;99.90
30063;DHT22;16889;67.864;24.990;2023-07-28T22:19:53;13.00;99.90
30063;DHT22;16889;67.864;24.990;2023-07-28T22:24:39;12.90;99.90
30063;DHT22;16889;67.864;24.990;2023-07-28T22:29:25;12.90;99.90
30063;DHT22;16889;67.864;24.990;2023-07-28T22:34:11;12.80;99.90
30063;DHT22;16889;67.864;24.990;2023-07-28T22:38:57;12.80;99.90
30063;DHT22;16889;67.864;24.990;2023-07-28T22:43:43;12.70;99.90
30063;DHT22;16889;67.864;24.990;2023-07-28T22:48:29;12.60;99.90
30063;DHT22;16889;67.864;24.990;2023-07-28T22:53:15;12.50;99.90
30063;DHT22;16889;67.864;24.990;2023-07-28T22:58:01;12.60;99.90
30063;DHT22;16889;67.864;24.990;2023-07-28T23:02:47;12.60;99.90
30063;DHT22;16889;67.864;24.990;2023-07-28T23:07:33;12.50;99.90
30063;DHT22;16889;67.864;24.990;2023-07-28T23:12:19;12.40;99.90
30063;DHT22;16889;67.864;24.990;2023-07-28T23:17:05;12.30;99.90
30063;DHT22;16889;67.864;24.990;2023-07-28T23:21:51;12.30;99.90
30063;DHT22;16889;67.864;24.990;2023-07-28T23:26:37;12.30;99.90
30063;DHT22;16889;67.864;24.990;2023-07-28T23:31:23;12.30;99.90
30063;DHT22;16889;67.864;24.990;2023-07-28T23:36:13;12.30;99.90
30063;DHT22;16889;67.864;24.990;2023-07-28T23:40:59;12.30;99.90
30063;DHT22;16889;67.864;24.990;2023-07-28T23:45:46;12.40;99.90
30063;DHT22;16889;67.864;24.990;2023-07-28T23:50:32;12.30;99.90
30063;DHT22;16889;67.864;24.990;2023-07-28T23:55:18;12.20;99.90
